sensor_id;sensor_type;location;lat;lon;timestamp;temperature;humidity
53752;DHT22;41095;53.090;6.692;2023-06-22T00:00:28;18.80;99.90
53752;DHT22;41095;53.090;6.692;2023-06-22T00:02:54;18.70;99.90
53752;DHT22;41095;53.090;6.692;2023-06-22T00:05:20;18.70;99.90
53752;DHT22;41095;53.090;6.692;2023-06-22T00:07:45;18.60;99.90
53752;DHT22;41095;53.090;6.692;2023-06-22T00:10:11;18.60;99.90
53752;DHT22;41095;53.090;6.692;2023-06-22T00:12:37;18.60;99.90
53752;DHT22;41095;53.090;6.692;2023-06-22T00:15:03;18.60;99.90
53752;DHT22;41095;53.090;6.692;2023-06-22T00:17:29;18.60;99.90
53752;DHT22;41095;53.090;6.692;2023-06-22T00:19:55;18.50;99.90
53752;DHT22;41095;53.090;6.692;2023-06-22T00:22:21;18.50;99.90
53752;DHT22;41095;53.090;6.692;2023-06-22T00:24:55;18.40;99.90
53752;DHT22;41095;53.090;6.692;2023-06-22T00:27:21;18.40;99.90
53752;DHT22;41095;53.090;6.692;2023-06-22T00:29:46;18.30;99.90
53752;DHT22;41095;53.090;6.692;2023-06-22T00:32:12;18.30;99.90
53752;DHT22;41095;53.090;6.692;2023-06-22T00:34:38;18.20;99.90
53752;DHT22;41095;53.090;6.692;2023-06-22T00:37:04;18.10;99.90
53752;DHT22;41095;53.090;6.692;2023-06-22T00:39:30;18.10;99.90
53752;DHT22;41095;53.090;6.692;2023-06-22T00:41:59;18.10;99.90
53752;DHT22;41095;53.090;6.692;2023-06-22T00:44:25;18.10;99.90
53752;DHT22;41095;53.090;6.692;2023-06-22T00:46:54;18.10;99.90
53752;DHT22;41095;53.090;6.692;2023-06-22T00:49:20;18.20;99.90
53752;DHT22;41095;53.090;6.692;2023-06-22T00:51:46;18.10;99.90
53752;DHT22;41095;53.090;6.692;2023-06-22T00:54:13;18.10;99.90
53752;DHT22;41095;53.090;6.692;2023-06-22T00:56:40;18.00;99.90
53752;DHT22;41095;53.090;6.692;2023-06-22T00:59:06;18.00;99.90
53752;DHT22;41095;53.090;6.692;2023-06-22T01:01:32;17.90;99.90
53752;DHT22;41095;53.090;6.692;2023-06-22T01:03:59;17.90;99.90
53752;DHT22;41095;53.090;6.692;2023-06-22T01:06:33;17.80;99.90
53752;DHT22;41095;53.090;6.692;2023-06-22T01:09:15;17.80;99.90
53752;DHT22;41095;53.090;6.692;2023-06-22T01:11:49;17.80;99.90
53752;DHT22;41095;53.090;6.692;2023-06-22T01:14:23;17.80;99.90
53752;DHT22;41095;53.090;6.692;2023-06-22T01:16:51;17.80;99.90
53752;DHT22;41095;53.090;6.692;2023-06-22T01:19:44;17.80;99.90
53752;DHT22;41095;53.090;6.692;2023-06-22T01:22:16;17.80;99.90
53752;DHT22;41095;53.090;6.692;2023-06-22T01:27:33;18.10;99.90
53752;DHT22;41095;53.090;6.692;2023-06-22T01:30:03;17.70;99.90
53752;DHT22;41095;53.090;6.692;2023-06-22T01:32:33;17.60;99.90
53752;DHT22;41095;53.090;6.692;2023-06-22T01:35:01;17.60;99.90
53752;DHT22;41095;53.090;6.692;2023-06-22T01:37:31;17.60;99.90
53752;DHT22;41095;53.090;6.692;2023-06-22T01:39:58;17.60;99.90
53752;DHT22;41095;53.090;6.692;2023-06-22T01:42:25;17.60;99.90
53752;DHT22;41095;53.090;6.692;2023-06-22T01:44:52;17.60;99.90
53752;DHT22;41095;53.090;6.692;2023-06-22T01:47:20;17.70;99.90
53752;DHT22;41095;53.090;6.692;2023-06-22T01:49:46;17.60;99.90
53752;DHT22;41095;53.090;6.692;2023-06-22T01:52:12;17.60;99.90
53752;DHT22;41095;53.090;6.692;2023-06-22T01:54:39;17.60;99.90
53752;DHT22;41095;53.090;6.692;2023-06-22T01:57:05;17.60;99.90
53752;DHT22;41095;53.090;6.692;2023-06-22T02:00:01;17.60;99.90
53752;DHT22;41095;53.090;6.692;2023-06-22T02:02:34;17.60;99.90
53752;DHT22;41095;53.090;6.692;2023-06-22T02:05:06;17.50;99.90
53752;DHT22;41095;53.090;6.692;2023-06-22T02:07:41;17.50;99.90
53752;DHT22;41095;53.090;6.692;2023-06-22T02:10:09;17.50;99.90
53752;DHT22;41095;53.090;6.692;2023-06-22T02:12:37;17.50;99.90
53752;DHT22;41095;53.090;6.692;2023-06-22T02:15:05;17.40;99.90
53752;DHT22;41095;53.090;6.692;2023-06-22T02:17:31;17.40;99.90
53752;DHT22;41095;53.090;6.692;2023-06-22T02:19:58;17.40;99.90
53752;DHT22;41095;53.090;6.692;2023-06-22T02:22:24;17.40;99.90
53752;DHT22;41095;53.090;6.692;2023-06-22T02:24:50;17.30;99.90
53752;DHT22;41095;53.090;6.692;2023-06-22T02:27:15;17.30;99.90
53752;DHT22;41095;53.090;6.692;2023-06-22T02:29:41;17.30;99.90
53752;DHT22;41095;53.090;6.692;2023-06-22T02:32:07;17.30;99.90
53752;DHT22;41095;53.090;6.692;2023-06-22T02:34:33;17.30;99.90
53752;DHT22;41095;53.090;6.692;2023-06-22T02:36:59;17.30;99.90
53752;DHT22;41095;53.090;6.692;2023-06-22T02:39:27;17.30;99.90
53752;DHT22;41095;53.090;6.692;2023-06-22T02:41:54;17.30;99.90
53752;DHT22;41095;53.090;6.692;2023-06-22T02:44:20;17.20;99.90
53752;DHT22;41095;53.090;6.692;2023-06-22T02:46:47;17.10;99.90
53752;DHT22;41095;53.090;6.692;2023-06-22T02:49:13;17.10;99.90
53752;DHT22;41095;53.090;6.692;2023-06-22T02:51:45;17.00;99.90
53752;DHT22;41095;53.090;6.692;2023-06-22T02:54:10;16.90;99.90
53752;DHT22;41095;53.090;6.692;2023-06-22T02:56:36;16.90;99.90
53752;DHT22;41095;53.090;6.692;2023-06-22T02:59:02;16.80;99.90
53752;DHT22;41095;53.090;6.692;2023-06-22T03:01:28;16.90;99.90
53752;DHT22;41095;53.090;6.692;2023-06-22T03:03:58;16.80;99.90
53752;DHT22;41095;53.090;6.692;2023-06-22T03:06:24;16.90;99.90
53752;DHT22;41095;53.090;6.692;2023-06-22T03:08:58;16.90;99.90
53752;DHT22;41095;53.090;6.692;2023-06-22T03:11:24;16.90;99.90
53752;DHT22;41095;53.090;6.692;2023-06-22T03:13:49;17.00;99.90
53752;DHT22;41095;53.090;6.692;2023-06-22T03:16:17;17.00;99.90
53752;DHT22;41095;53.090;6.692;2023-06-22T03:18:43;17.00;99.90
53752;DHT22;41095;53.090;6.692;2023-06-22T03:21:09;17.00;99.90
53752;DHT22;41095;53.090;6.692;2023-06-22T03:23:35;17.00;99.90
53752;DHT22;41095;53.090;6.692;2023-06-22T03:26:01;17.10;99.90
53752;DHT22;41095;53.090;6.692;2023-06-22T03:28:27;17.10;99.90
53752;DHT22;41095;53.090;6.692;2023-06-22T03:30:52;17.20;99.90
53752;DHT22;41095;53.090;6.692;2023-06-22T03:33:18;17.20;99.90
53752;DHT22;41095;53.090;6.692;2023-06-22T03:35:44;17.20;99.90
53752;DHT22;41095;53.090;6.692;2023-06-22T03:38:09;17.20;99.90
53752;DHT22;41095;53.090;6.692;2023-06-22T03:40:35;17.30;99.90
53752;DHT22;41095;53.090;6.692;2023-06-22T03:43:01;17.20;99.90
53752;DHT22;41095;53.090;6.692;2023-06-22T03:45:26;17.20;99.90
53752;DHT22;41095;53.090;6.692;2023-06-22T03:47:52;17.20;99.90
53752;DHT22;41095;53.090;6.692;2023-06-22T03:50:18;17.10;99.90
53752;DHT22;41095;53.090;6.692;2023-06-22T03:52:46;17.10;99.90
53752;DHT22;41095;53.090;6.692;2023-06-22T03:55:12;17.20;99.90
53752;DHT22;41095;53.090;6.692;2023-06-22T03:57:38;17.20;99.90
53752;DHT22;41095;53.090;6.692;2023-06-22T04:00:04;17.20;99.90
53752;DHT22;41095;53.090;6.692;2023-06-22T04:02:31;17.20;99.90
53752;DHT22;41095;53.090;6.692;2023-06-22T04:04:57;17.20;99.90
53752;DHT22;41095;53.090;6.692;2023-06-22T04:07:22;17.20;99.90
53752;DHT22;41095;53.090;6.692;2023-06-22T04:09:48;17.30;99.90
53752;DHT22;41095;53.090;6.692;2023-06-22T04:12:14;17.30;99.90
53752;DHT22;41095;53.090;6.692;2023-06-22T04:14:40;17.30;99.90
53752;DHT22;41095;53.090;6.692;2023-06-22T04:17:05;17.40;99.90
53752;DHT22;41095;53.090;6.692;2023-06-22T04:19:31;17.50;99.90
53752;DHT22;41095;53.090;6.692;2023-06-22T04:21:57;17.50;99.90
53752;DHT22;41095;53.090;6.692;2023-06-22T04:24:22;17.50;99.90
53752;DHT22;41095;53.090;6.692;2023-06-22T04:26:48;17.60;99.90
53752;DHT22;41095;53.090;6.692;2023-06-22T04:29:14;17.60;99.90
53752;DHT22;41095;53.090;6.692;2023-06-22T04:31:40;17.60;99.90
53752;DHT22;41095;53.090;6.692;2023-06-22T04:34:07;17.60;99.90
53752;DHT22;41095;53.090;6.692;2023-06-22T04:36:37;17.60;99.90
53752;DHT22;41095;53.090;6.692;2023-06-22T04:39:12;17.60;99.90
53752;DHT22;41095;53.090;6.692;2023-06-22T04:41:40;17.60;99.90
53752;DHT22;41095;53.090;6.692;2023-06-22T04:46:35;17.70;99.90
53752;DHT22;41095;53.090;6.692;2023-06-22T04:49:07;17.70;99.90
53752;DHT22;41095;53.090;6.692;2023-06-22T04:51:37;17.70;99.90
53752;DHT22;41095;53.090;6.692;2023-06-22T04:54:03;17.70;99.90
53752;DHT22;41095;53.090;6.692;2023-06-22T04:56:31;17.80;99.90
53752;DHT22;41095;53.090;6.692;2023-06-22T04:58:57;17.80;99.90
53752;DHT22;41095;53.090;6.692;2023-06-22T05:01:23;17.90;99.90
53752;DHT22;41095;53.090;6.692;2023-06-22T05:03:49;17.90;99.90
53752;DHT22;41095;53.090;6.692;2023-06-22T05:06:15;18.00;99.90
53752;DHT22;41095;53.090;6.692;2023-06-22T05:08:41;18.10;99.90
53752;DHT22;41095;53.090;6.692;2023-06-22T05:11:06;18.10;99.90
53752;DHT22;41095;53.090;6.692;2023-06-22T05:13:32;18.20;99.90
53752;DHT22;41095;53.090;6.692;2023-06-22T05:15:58;18.20;99.90
53752;DHT22;41095;53.090;6.692;2023-06-22T05:18:30;18.30;99.90
53752;DHT22;41095;53.090;6.692;2023-06-22T05:20:57;18.40;99.90
53752;DHT22;41095;53.090;6.692;2023-06-22T05:23:23;18.50;99.90
53752;DHT22;41095;53.090;6.692;2023-06-22T05:25:49;18.50;99.90
53752;DHT22;41095;53.090;6.692;2023-06-22T05:28:15;18.60;99.90
53752;DHT22;41095;53.090;6.692;2023-06-22T05:30:40;18.70;99.90
53752;DHT22;41095;53.090;6.692;2023-06-22T05:33:06;18.80;99.90
53752;DHT22;41095;53.090;6.692;2023-06-22T05:35:32;18.90;99.90
53752;DHT22;41095;53.090;6.692;2023-06-22T05:37:58;19.00;99.90
53752;DHT22;41095;53.090;6.692;2023-06-22T05:40:23;19.10;99.90
53752;DHT22;41095;53.090;6.692;2023-06-22T05:42:49;19.30;99.90
53752;DHT22;41095;53.090;6.692;2023-06-22T05:45:15;19.50;99.90
53752;DHT22;41095;53.090;6.692;2023-06-22T05:47:40;19.60;99.90
53752;DHT22;41095;53.090;6.692;2023-06-22T05:50:06;19.70;99.90
53752;DHT22;41095;53.090;6.692;2023-06-22T05:52:34;19.80;99.90
53752;DHT22;41095;53.090;6.692;2023-06-22T05:55:01;19.90;99.90
53752;DHT22;41095;53.090;6.692;2023-06-22T05:57:27;20.00;99.90
53752;DHT22;41095;53.090;6.692;2023-06-22T05:59:53;20.10;99.90
53752;DHT22;41095;53.090;6.692;2023-06-22T06:02:19;20.10;99.90
53752;DHT22;41095;53.090;6.692;2023-06-22T06:04:45;20.30;99.90
53752;DHT22;41095;53.090;6.692;2023-06-22T06:07:11;20.50;99.90
53752;DHT22;41095;53.090;6.692;2023-06-22T06:09:37;20.60;99.90
53752;DHT22;41095;53.090;6.692;2023-06-22T06:12:03;20.80;99.90
53752;DHT22;41095;53.090;6.692;2023-06-22T06:14:29;20.90;99.90
53752;DHT22;41095;53.090;6.692;2023-06-22T06:16:54;21.10;99.90
53752;DHT22;41095;53.090;6.692;2023-06-22T06:19:20;21.30;99.90
53752;DHT22;41095;53.090;6.692;2023-06-22T06:21:45;21.70;99.90
53752;DHT22;41095;53.090;6.692;2023-06-22T06:24:11;22.10;99.90
53752;DHT22;41095;53.090;6.692;2023-06-22T06:26:37;22.50;99.90
53752;DHT22;41095;53.090;6.692;2023-06-22T06:29:03;22.60;99.90
53752;DHT22;41095;53.090;6.692;2023-06-22T06:31:29;22.80;99.90
53752;DHT22;41095;53.090;6.692;2023-06-22T06:33:55;23.00;99.90
53752;DHT22;41095;53.090;6.692;2023-06-22T06:36:20;23.60;99.90
53752;DHT22;41095;53.090;6.692;2023-06-22T06:38:46;24.10;99.90
53752;DHT22;41095;53.090;6.692;2023-06-22T06:41:16;24.70;99.90
53752;DHT22;41095;53.090;6.692;2023-06-22T06:43:42;24.90;99.90
53752;DHT22;41095;53.090;6.692;2023-06-22T06:46:09;25.30;99.90
53752;DHT22;41095;53.090;6.692;2023-06-22T06:48:35;25.60;99.90
53752;DHT22;41095;53.090;6.692;2023-06-22T06:51:00;25.80;99.90
53752;DHT22;41095;53.090;6.692;2023-06-22T06:53:26;25.70;99.90
53752;DHT22;41095;53.090;6.692;2023-06-22T06:58:18;26.20;99.90
53752;DHT22;41095;53.090;6.692;2023-06-22T07:00:44;26.60;99.90
53752;DHT22;41095;53.090;6.692;2023-06-22T07:03:10;26.70;99.90
53752;DHT22;41095;53.090;6.692;2023-06-22T07:05:36;26.40;99.90
53752;DHT22;41095;53.090;6.692;2023-06-22T07:08:02;26.50;99.90
53752;DHT22;41095;53.090;6.692;2023-06-22T07:10:28;26.60;99.80
53752;DHT22;41095;53.090;6.692;2023-06-22T07:12:54;26.40;99.30
53752;DHT22;41095;53.090;6.692;2023-06-22T07:15:20;26.30;99.00
53752;DHT22;41095;53.090;6.692;2023-06-22T07:17:45;26.20;98.80
53752;DHT22;41095;53.090;6.692;2023-06-22T07:20:11;26.20;98.80
53752;DHT22;41095;53.090;6.692;2023-06-22T07:22:42;26.10;98.50
53752;DHT22;41095;53.090;6.692;2023-06-22T07:25:08;26.00;97.40
53752;DHT22;41095;53.090;6.692;2023-06-22T07:27:44;25.90;98.20
53752;DHT22;41095;53.090;6.692;2023-06-22T07:30:11;25.90;98.20
53752;DHT22;41095;53.090;6.692;2023-06-22T07:32:38;25.80;98.00
53752;DHT22;41095;53.090;6.692;2023-06-22T07:35:04;25.80;98.00
53752;DHT22;41095;53.090;6.692;2023-06-22T07:37:30;25.70;97.80
53752;DHT22;41095;53.090;6.692;2023-06-22T07:39:56;25.70;97.70
53752;DHT22;41095;53.090;6.692;2023-06-22T07:42:27;25.70;97.70
53752;DHT22;41095;53.090;6.692;2023-06-22T07:44:58;25.90;97.50
53752;DHT22;41095;53.090;6.692;2023-06-22T07:47:23;26.20;97.50
53752;DHT22;41095;53.090;6.692;2023-06-22T07:49:54;26.90;97.00
53752;DHT22;41095;53.090;6.692;2023-06-22T07:52:21;27.30;96.20
53752;DHT22;41095;53.090;6.692;2023-06-22T07:54:47;27.60;95.80
53752;DHT22;41095;53.090;6.692;2023-06-22T07:57:12;27.60;95.90
53752;DHT22;41095;53.090;6.692;2023-06-22T07:59:38;27.80;95.60
53752;DHT22;41095;53.090;6.692;2023-06-22T08:02:05;27.90;95.60
53752;DHT22;41095;53.090;6.692;2023-06-22T08:04:30;28.20;95.40
53752;DHT22;41095;53.090;6.692;2023-06-22T08:06:59;28.30;95.40
53752;DHT22;41095;53.090;6.692;2023-06-22T08:09:25;28.60;94.90
53752;DHT22;41095;53.090;6.692;2023-06-22T08:11:50;28.50;94.70
53752;DHT22;41095;53.090;6.692;2023-06-22T08:14:16;28.40;94.50
53752;DHT22;41095;53.090;6.692;2023-06-22T08:16:42;28.50;94.30
53752;DHT22;41095;53.090;6.692;2023-06-22T08:19:08;28.70;94.20
53752;DHT22;41095;53.090;6.692;2023-06-22T08:21:33;28.60;93.20
53752;DHT22;41095;53.090;6.692;2023-06-22T08:23:59;28.70;93.50
53752;DHT22;41095;53.090;6.692;2023-06-22T08:26:25;28.80;93.20
53752;DHT22;41095;53.090;6.692;2023-06-22T08:28:50;28.70;93.70
53752;DHT22;41095;53.090;6.692;2023-06-22T08:31:16;28.70;93.20
53752;DHT22;41095;53.090;6.692;2023-06-22T08:33:42;29.20;93.50
53752;DHT22;41095;53.090;6.692;2023-06-22T08:36:11;29.20;92.30
53752;DHT22;41095;53.090;6.692;2023-06-22T08:38:39;29.30;93.30
53752;DHT22;41095;53.090;6.692;2023-06-22T08:41:04;29.70;93.00
53752;DHT22;41095;53.090;6.692;2023-06-22T08:43:30;30.00;92.40
53752;DHT22;41095;53.090;6.692;2023-06-22T08:45:56;30.30;91.90
53752;DHT22;41095;53.090;6.692;2023-06-22T08:48:21;30.40;91.40
53752;DHT22;41095;53.090;6.692;2023-06-22T08:50:47;30.40;91.30
53752;DHT22;41095;53.090;6.692;2023-06-22T08:53:13;30.00;91.50
53752;DHT22;41095;53.090;6.692;2023-06-22T08:55:38;30.20;91.40
53752;DHT22;41095;53.090;6.692;2023-06-22T08:58:04;30.00;91.60
53752;DHT22;41095;53.090;6.692;2023-06-22T09:00:30;30.10;91.60
53752;DHT22;41095;53.090;6.692;2023-06-22T09:02:58;30.10;91.30
53752;DHT22;41095;53.090;6.692;2023-06-22T09:05:24;29.70;91.40
53752;DHT22;41095;53.090;6.692;2023-06-22T09:07:53;30.00;90.90
53752;DHT22;41095;53.090;6.692;2023-06-22T09:10:20;30.10;90.90
53752;DHT22;41095;53.090;6.692;2023-06-22T09:12:46;29.60;91.00
53752;DHT22;41095;53.090;6.692;2023-06-22T09:15:11;29.40;91.40
53752;DHT22;41095;53.090;6.692;2023-06-22T09:17:37;29.60;91.70
53752;DHT22;41095;53.090;6.692;2023-06-22T09:20:04;29.70;91.40
53752;DHT22;41095;53.090;6.692;2023-06-22T09:22:31;30.20;91.90
53752;DHT22;41095;53.090;6.692;2023-06-22T09:24:58;30.00;90.40
53752;DHT22;41095;53.090;6.692;2023-06-22T09:27:25;29.80;91.50
53752;DHT22;41095;53.090;6.692;2023-06-22T09:29:50;30.20;91.50
53752;DHT22;41095;53.090;6.692;2023-06-22T09:32:16;30.40;90.90
53752;DHT22;41095;53.090;6.692;2023-06-22T09:34:42;30.40;90.90
53752;DHT22;41095;53.090;6.692;2023-06-22T09:37:07;30.50;90.70
53752;DHT22;41095;53.090;6.692;2023-06-22T09:39:33;30.20;91.00
53752;DHT22;41095;53.090;6.692;2023-06-22T09:41:59;30.40;90.70
53752;DHT22;41095;53.090;6.692;2023-06-22T09:44:28;29.80;90.50
53752;DHT22;41095;53.090;6.692;2023-06-22T09:46:53;29.40;90.70
53752;DHT22;41095;53.090;6.692;2023-06-22T09:49:19;29.60;90.70
53752;DHT22;41095;53.090;6.692;2023-06-22T09:51:45;29.60;90.70
53752;DHT22;41095;53.090;6.692;2023-06-22T09:54:11;29.90;90.50
53752;DHT22;41095;53.090;6.692;2023-06-22T09:56:36;30.00;90.40
53752;DHT22;41095;53.090;6.692;2023-06-22T09:59:03;30.10;90.40
53752;DHT22;41095;53.090;6.692;2023-06-22T10:01:28;29.70;90.40
53752;DHT22;41095;53.090;6.692;2023-06-22T10:03:55;29.80;90.80
53752;DHT22;41095;53.090;6.692;2023-06-22T10:06:22;29.50;90.90
53752;DHT22;41095;53.090;6.692;2023-06-22T10:08:48;29.50;90.90
53752;DHT22;41095;53.090;6.692;2023-06-22T10:11:14;29.60;90.80
53752;DHT22;41095;53.090;6.692;2023-06-22T10:13:39;29.80;90.50
53752;DHT22;41095;53.090;6.692;2023-06-22T10:16:05;29.30;90.40
53752;DHT22;41095;53.090;6.692;2023-06-22T10:18:31;29.50;90.70
53752;DHT22;41095;53.090;6.692;2023-06-22T10:20:56;29.50;90.70
53752;DHT22;41095;53.090;6.692;2023-06-22T10:23:22;29.40;90.90
53752;DHT22;41095;53.090;6.692;2023-06-22T10:25:48;29.30;90.80
53752;DHT22;41095;53.090;6.692;2023-06-22T10:28:14;28.90;90.90
53752;DHT22;41095;53.090;6.692;2023-06-22T10:30:40;29.20;90.80
53752;DHT22;41095;53.090;6.692;2023-06-22T10:33:10;28.80;90.10
53752;DHT22;41095;53.090;6.692;2023-06-22T10:35:36;28.90;90.50
53752;DHT22;41095;53.090;6.692;2023-06-22T10:38:05;28.80;90.90
53752;DHT22;41095;53.090;6.692;2023-06-22T10:40:31;28.90;91.10
53752;DHT22;41095;53.090;6.692;2023-06-22T10:42:57;29.40;91.00
53752;DHT22;41095;53.090;6.692;2023-06-22T10:45:23;29.70;90.50
53752;DHT22;41095;53.090;6.692;2023-06-22T10:47:49;30.00;90.40
53752;DHT22;41095;53.090;6.692;2023-06-22T10:50:14;30.10;90.20
53752;DHT22;41095;53.090;6.692;2023-06-22T10:52:40;30.20;90.00
53752;DHT22;41095;53.090;6.692;2023-06-22T10:55:09;29.60;89.70
53752;DHT22;41095;53.090;6.692;2023-06-22T10:57:35;29.30;90.20
53752;DHT22;41095;53.090;6.692;2023-06-22T11:00:02;29.40;90.10
53752;DHT22;41095;53.090;6.692;2023-06-22T11:02:31;29.60;89.90
53752;DHT22;41095;53.090;6.692;2023-06-22T11:04:56;29.30;90.20
53752;DHT22;41095;53.090;6.692;2023-06-22T11:07:26;28.60;90.20
53752;DHT22;41095;53.090;6.692;2023-06-22T11:09:54;28.70;90.70
53752;DHT22;41095;53.090;6.692;2023-06-22T11:12:20;28.50;90.40
53752;DHT22;41095;53.090;6.692;2023-06-22T11:14:45;28.40;90.60
53752;DHT22;41095;53.090;6.692;2023-06-22T11:17:11;28.60;91.00
53752;DHT22;41095;53.090;6.692;2023-06-22T11:19:37;28.60;90.70
53752;DHT22;41095;53.090;6.692;2023-06-22T11:22:02;28.30;90.50
53752;DHT22;41095;53.090;6.692;2023-06-22T11:24:28;28.20;90.70
53752;DHT22;41095;53.090;6.692;2023-06-22T11:26:54;28.10;90.70
53752;DHT22;41095;53.090;6.692;2023-06-22T11:29:19;28.20;90.50
53752;DHT22;41095;53.090;6.692;2023-06-22T11:31:45;28.50;90.60
53752;DHT22;41095;53.090;6.692;2023-06-22T11:34:11;28.60;90.30
53752;DHT22;41095;53.090;6.692;2023-06-22T11:36:36;28.60;90.20
53752;DHT22;41095;53.090;6.692;2023-06-22T11:39:02;28.40;90.40
53752;DHT22;41095;53.090;6.692;2023-06-22T11:41:28;28.10;90.50
53752;DHT22;41095;53.090;6.692;2023-06-22T11:43:54;28.10;90.40
53752;DHT22;41095;53.090;6.692;2023-06-22T11:46:19;27.90;90.70
53752;DHT22;41095;53.090;6.692;2023-06-22T11:48:45;27.80;90.70
53752;DHT22;41095;53.090;6.692;2023-06-22T11:51:11;27.70;91.20
53752;DHT22;41095;53.090;6.692;2023-06-22T11:53:37;27.70;91.30
53752;DHT22;41095;53.090;6.692;2023-06-22T11:56:03;27.80;91.00
53752;DHT22;41095;53.090;6.692;2023-06-22T11:58:28;27.70;91.30
53752;DHT22;41095;53.090;6.692;2023-06-22T12:00:54;27.90;91.20
53752;DHT22;41095;53.090;6.692;2023-06-22T12:03:20;27.90;91.40
53752;DHT22;41095;53.090;6.692;2023-06-22T12:05:50;27.90;90.80
53752;DHT22;41095;53.090;6.692;2023-06-22T12:08:17;27.90;90.70
53752;DHT22;41095;53.090;6.692;2023-06-22T12:10:42;28.10;91.00
53752;DHT22;41095;53.090;6.692;2023-06-22T12:13:08;27.90;90.90
53752;DHT22;41095;53.090;6.692;2023-06-22T12:15:34;27.90;91.10
53752;DHT22;41095;53.090;6.692;2023-06-22T12:17:59;27.70;91.30
53752;DHT22;41095;53.090;6.692;2023-06-22T12:20:26;27.50;91.20
53752;DHT22;41095;53.090;6.692;2023-06-22T12:22:52;27.60;91.30
53752;DHT22;41095;53.090;6.692;2023-06-22T12:25:19;27.60;91.30
53752;DHT22;41095;53.090;6.692;2023-06-22T12:27:45;27.50;91.30
53752;DHT22;41095;53.090;6.692;2023-06-22T12:30:10;27.60;91.20
53752;DHT22;41095;53.090;6.692;2023-06-22T12:32:36;27.50;90.80
53752;DHT22;41095;53.090;6.692;2023-06-22T12:35:02;27.40;91.50
53752;DHT22;41095;53.090;6.692;2023-06-22T12:37:28;27.60;91.60
53752;DHT22;41095;53.090;6.692;2023-06-22T12:39:55;27.70;91.70
53752;DHT22;41095;53.090;6.692;2023-06-22T12:42:21;27.60;91.30
53752;DHT22;41095;53.090;6.692;2023-06-22T12:44:47;27.50;91.20
53752;DHT22;41095;53.090;6.692;2023-06-22T12:47:12;27.60;91.40
53752;DHT22;41095;53.090;6.692;2023-06-22T12:49:38;27.70;91.20
53752;DHT22;41095;53.090;6.692;2023-06-22T12:52:09;27.80;91.30
53752;DHT22;41095;53.090;6.692;2023-06-22T12:54:36;27.80;90.60
53752;DHT22;41095;53.090;6.692;2023-06-22T12:57:02;27.50;91.10
53752;DHT22;41095;53.090;6.692;2023-06-22T12:59:27;27.50;91.40
53752;DHT22;41095;53.090;6.692;2023-06-22T13:01:53;27.30;92.10
53752;DHT22;41095;53.090;6.692;2023-06-22T13:04:19;27.20;92.40
53752;DHT22;41095;53.090;6.692;2023-06-22T13:06:45;27.40;92.30
53752;DHT22;41095;53.090;6.692;2023-06-22T13:09:14;27.30;92.30
53752;DHT22;41095;53.090;6.692;2023-06-22T13:11:39;27.50;92.30
53752;DHT22;41095;53.090;6.692;2023-06-22T13:14:05;27.20;92.30
53752;DHT22;41095;53.090;6.692;2023-06-22T13:16:31;27.10;92.60
53752;DHT22;41095;53.090;6.692;2023-06-22T13:18:56;26.90;92.80
53752;DHT22;41095;53.090;6.692;2023-06-22T13:21:22;26.80;93.20
53752;DHT22;41095;53.090;6.692;2023-06-22T13:23:48;26.80;93.50
53752;DHT22;41095;53.090;6.692;2023-06-22T13:26:13;26.60;93.60
53752;DHT22;41095;53.090;6.692;2023-06-22T13:28:39;26.40;93.80
53752;DHT22;41095;53.090;6.692;2023-06-22T13:31:05;26.40;94.00
53752;DHT22;41095;53.090;6.692;2023-06-22T13:33:31;26.10;93.80
53752;DHT22;41095;53.090;6.692;2023-06-22T13:35:56;26.10;94.10
53752;DHT22;41095;53.090;6.692;2023-06-22T13:38:22;25.90;94.30
53752;DHT22;41095;53.090;6.692;2023-06-22T13:40:48;25.70;94.40
53752;DHT22;41095;53.090;6.692;2023-06-22T13:43:15;25.40;94.70
53752;DHT22;41095;53.090;6.692;2023-06-22T13:45:41;25.40;94.70
53752;DHT22;41095;53.090;6.692;2023-06-22T13:48:07;25.40;94.90
53752;DHT22;41095;53.090;6.692;2023-06-22T13:50:33;25.30;95.00
53752;DHT22;41095;53.090;6.692;2023-06-22T13:52:58;25.30;95.40
53752;DHT22;41095;53.090;6.692;2023-06-22T13:55:24;25.40;95.50
53752;DHT22;41095;53.090;6.692;2023-06-22T13:57:50;25.30;95.20
53752;DHT22;41095;53.090;6.692;2023-06-22T14:00:17;25.30;95.20
53752;DHT22;41095;53.090;6.692;2023-06-22T14:02:43;25.30;95.50
53752;DHT22;41095;53.090;6.692;2023-06-22T14:05:09;25.10;95.60
53752;DHT22;41095;53.090;6.692;2023-06-22T14:07:34;25.20;95.70
53752;DHT22;41095;53.090;6.692;2023-06-22T14:10:01;25.10;95.50
53752;DHT22;41095;53.090;6.692;2023-06-22T14:12:26;25.00;95.50
53752;DHT22;41095;53.090;6.692;2023-06-22T14:14:52;24.80;95.70
53752;DHT22;41095;53.090;6.692;2023-06-22T14:17:18;24.80;95.90
53752;DHT22;41095;53.090;6.692;2023-06-22T14:19:49;24.60;96.20
53752;DHT22;41095;53.090;6.692;2023-06-22T14:22:15;24.60;96.10
53752;DHT22;41095;53.090;6.692;2023-06-22T14:24:41;24.50;96.00
53752;DHT22;41095;53.090;6.692;2023-06-22T14:27:07;24.50;96.10
53752;DHT22;41095;53.090;6.692;2023-06-22T14:29:34;24.50;96.10
53752;DHT22;41095;53.090;6.692;2023-06-22T14:32:00;24.50;96.30
53752;DHT22;41095;53.090;6.692;2023-06-22T14:34:26;24.40;96.10
53752;DHT22;41095;53.090;6.692;2023-06-22T14:36:51;24.40;96.00
53752;DHT22;41095;53.090;6.692;2023-06-22T14:39:17;24.50;96.10
53752;DHT22;41095;53.090;6.692;2023-06-22T14:41:42;24.50;96.20
53752;DHT22;41095;53.090;6.692;2023-06-22T14:44:08;24.50;96.30
53752;DHT22;41095;53.090;6.692;2023-06-22T14:46:35;24.40;96.40
53752;DHT22;41095;53.090;6.692;2023-06-22T14:49:01;24.40;96.30
53752;DHT22;41095;53.090;6.692;2023-06-22T14:51:26;24.40;96.20
53752;DHT22;41095;53.090;6.692;2023-06-22T14:53:52;24.20;96.00
53752;DHT22;41095;53.090;6.692;2023-06-22T14:56:18;24.20;96.00
53752;DHT22;41095;53.090;6.692;2023-06-22T14:58:44;24.10;96.00
53752;DHT22;41095;53.090;6.692;2023-06-22T15:01:13;24.00;96.00
53752;DHT22;41095;53.090;6.692;2023-06-22T15:03:39;24.50;96.30
53752;DHT22;41095;53.090;6.692;2023-06-22T15:06:05;23.80;96.00
53752;DHT22;41095;53.090;6.692;2023-06-22T15:08:30;23.70;95.90
53752;DHT22;41095;53.090;6.692;2023-06-22T15:10:59;23.70;96.00
53752;DHT22;41095;53.090;6.692;2023-06-22T15:13:27;23.70;95.90
53752;DHT22;41095;53.090;6.692;2023-06-22T15:15:53;23.60;96.00
53752;DHT22;41095;53.090;6.692;2023-06-22T15:18:19;23.60;96.00
53752;DHT22;41095;53.090;6.692;2023-06-22T15:20:44;23.60;96.40
53752;DHT22;41095;53.090;6.692;2023-06-22T15:23:12;23.60;96.20
53752;DHT22;41095;53.090;6.692;2023-06-22T15:25:37;23.50;96.10
53752;DHT22;41095;53.090;6.692;2023-06-22T15:28:03;23.40;96.20
53752;DHT22;41095;53.090;6.692;2023-06-22T15:30:29;23.20;96.40
53752;DHT22;41095;53.090;6.692;2023-06-22T15:32:56;23.30;96.30